createdAt,value
2023-03-16T00:03:34.275Z,100.00
2023-03-16T00:06:21.891Z,100.00
2023-03-16T00:09:10.097Z,100.00
2023-03-16T00:12:03.336Z,100.00
2023-03-16T00:14:51.457Z,100.00
2023-03-16T00:17:38.541Z,100.00
2023-03-16T00:20:25.791Z,100.00
2023-03-16T00:23:12.922Z,100.00
2023-03-16T00:26:00.497Z,100.00
2023-03-16T00:28:47.532Z,100.00
2023-03-16T00:31:34.647Z,100.00
2023-03-16T00:34:23.018Z,100.00
2023-03-16T00:37:10.436Z,100.00
2023-03-16T00:39:57.806Z,100.00
2023-03-16T00:42:44.870Z,100.00
2023-03-16T00:45:32.809Z,100.00
2023-03-16T00:48:21.407Z,100.00
2023-03-16T00:51:13.057Z,100.00
2023-03-16T00:54:00.143Z,100.00
2023-03-16T00:56:47.249Z,100.00
2023-03-16T00:59:36.568Z,100.00
2023-03-16T01:02:24.853Z,100.00
2023-03-16T01:05:13.237Z,100.00
2023-03-16T01:08:02.835Z,100.00
2023-03-16T01:10:50.010Z,100.00
2023-03-16T01:13:38.554Z,100.00
2023-03-16T01:16:25.894Z,100.00
2023-03-16T01:19:14.582Z,100.00
2023-03-16T01:22:06.537Z,100.00
2023-03-16T01:24:53.607Z,100.00
2023-03-16T01:27:41.000Z,100.00
2023-03-16T01:30:28.505Z,100.00
2023-03-16T01:33:15.917Z,100.00
2023-03-16T01:36:06.282Z,100.00
2023-03-16T01:38:54.209Z,100.00
2023-03-16T01:41:42.684Z,100.00
2023-03-16T01:44:32.836Z,100.00
2023-03-16T01:47:19.877Z,100.00
2023-03-16T01:50:07.667Z,100.00
2023-03-16T01:52:54.881Z,100.00
2023-03-16T01:55:42.966Z,100.00
2023-03-16T01:58:31.655Z,100.00
2023-03-16T02:01:18.843Z,100.00
2023-03-16T02:04:13.543Z,100.00
2023-03-16T02:07:01.206Z,100.00
2023-03-16T02:09:52.411Z,100.00
2023-03-16T02:12:39.689Z,100.00
2023-03-16T02:15:27.556Z,100.00
2023-03-16T02:18:15.317Z,100.00
2023-03-16T02:21:54.787Z,100.00
2023-03-16T02:24:42.541Z,100.00
2023-03-16T02:27:51.795Z,100.00
2023-03-16T02:30:39.202Z,100.00
2023-03-16T02:33:26.465Z,100.00
2023-03-16T02:36:15.477Z,100.00
2023-03-16T02:39:02.517Z,100.00
2023-03-16T02:41:50.133Z,100.00
2023-03-16T02:44:40.775Z,100.00
2023-03-16T02:47:42.252Z,100.00
2023-03-16T02:50:29.902Z,100.00
2023-03-16T02:53:18.090Z,100.00
2023-03-16T02:56:05.477Z,100.00
2023-03-16T02:58:52.641Z,100.00
2023-03-16T03:01:40.031Z,100.00
2023-03-16T03:04:27.197Z,100.00
2023-03-16T03:07:15.118Z,100.00
2023-03-16T03:10:03.177Z,100.00
2023-03-16T03:12:50.226Z,100.00
2023-03-16T03:15:37.322Z,100.00
2023-03-16T03:18:34.829Z,100.00
2023-03-16T03:21:24.033Z,100.00
2023-03-16T03:24:11.092Z,100.00
2023-03-16T03:27:00.828Z,100.00
2023-03-16T03:29:48.066Z,100.00
2023-03-16T03:32:35.245Z,100.00
2023-03-16T03:35:22.552Z,100.00
2023-03-16T03:38:09.754Z,100.00
2023-03-16T03:40:59.668Z,100.00
2023-03-16T03:43:46.760Z,100.00
2023-03-16T03:46:33.947Z,100.00
2023-03-16T03:49:21.154Z,100.00
2023-03-16T03:52:08.225Z,100.00
2023-03-16T03:54:55.361Z,100.00
2023-03-16T03:57:42.445Z,100.00
2023-03-16T04:00:29.850Z,100.00
2023-03-16T04:03:17.816Z,100.00
2023-03-16T04:06:07.300Z,100.00
2023-03-16T04:08:54.522Z,100.00
2023-03-16T04:11:41.686Z,100.00
2023-03-16T04:14:29.729Z,100.00
2023-03-16T04:17:17.299Z,100.00
2023-03-16T04:20:13.379Z,100.00
2023-03-16T04:23:00.479Z,100.00
2023-03-16T04:25:47.949Z,100.00
2023-03-16T04:28:35.186Z,100.00
2023-03-16T04:31:22.726Z,100.00
2023-03-16T04:34:10.207Z,100.00
2023-03-16T04:36:57.522Z,100.00
2023-03-16T04:39:44.700Z,100.00
2023-03-16T04:42:31.706Z,100.00
2023-03-16T04:45:18.812Z,100.00
2023-03-16T04:48:06.108Z,100.00
2023-03-16T04:50:53.238Z,100.00
2023-03-16T04:53:40.290Z,100.00
2023-03-16T04:56:27.352Z,100.00
2023-03-16T04:59:14.415Z,100.00
2023-03-16T05:02:01.497Z,100.00
2023-03-16T05:04:48.686Z,100.00
2023-03-16T05:07:35.862Z,100.00
2023-03-16T05:10:23.168Z,100.00
2023-03-16T05:13:10.621Z,100.00
2023-03-16T05:15:57.881Z,100.00
2023-03-16T05:18:45.027Z,100.00
2023-03-16T05:21:32.319Z,100.00
2023-03-16T05:24:19.453Z,100.00
2023-03-16T05:27:06.530Z,100.00
2023-03-16T05:29:53.584Z,100.00
2023-03-16T05:32:40.612Z,100.00
2023-03-16T05:35:28.215Z,100.00
2023-03-16T05:38:15.964Z,100.00
2023-03-16T05:41:05.901Z,100.00
2023-03-16T05:43:53.239Z,100.00
2023-03-16T05:46:40.369Z,100.00
2023-03-16T05:49:27.526Z,100.00
2023-03-16T05:52:14.587Z,100.00
2023-03-16T05:55:01.659Z,100.00
2023-03-16T05:57:48.720Z,100.00
2023-03-16T06:00:36.059Z,100.00
2023-03-16T06:03:23.137Z,100.00
2023-03-16T06:06:10.193Z,100.00
2023-03-16T06:08:57.344Z,100.00
2023-03-16T06:11:44.458Z,100.00
2023-03-16T06:14:31.561Z,100.00
2023-03-16T06:17:18.605Z,100.00
2023-03-16T06:20:11.182Z,100.00
2023-03-16T06:22:58.450Z,100.00
2023-03-16T06:25:47.938Z,100.00
2023-03-16T06:28:35.260Z,100.00
2023-03-16T06:31:22.431Z,100.00
2023-03-16T06:34:09.603Z,100.00
2023-03-16T06:36:56.713Z,100.00
2023-03-16T06:39:44.770Z,100.00
2023-03-16T06:42:31.936Z,100.00
2023-03-16T06:45:22.246Z,100.00
2023-03-16T06:48:10.082Z,100.00
2023-03-16T06:50:57.171Z,100.00
2023-03-16T06:53:44.246Z,100.00
2023-03-16T06:56:31.902Z,100.00
2023-03-16T06:59:19.210Z,100.00
2023-03-16T07:02:07.149Z,100.00
2023-03-16T07:04:54.257Z,100.00
2023-03-16T07:07:42.937Z,100.00
2023-03-16T07:10:30.476Z,100.00
2023-03-16T07:13:18.071Z,100.00
2023-03-16T07:16:05.364Z,100.00
2023-03-16T07:18:52.418Z,100.00
2023-03-16T07:21:40.975Z,100.00
2023-03-16T07:24:28.043Z,100.00
2023-03-16T07:27:15.095Z,100.00
2023-03-16T07:30:02.222Z,100.00
2023-03-16T07:32:49.995Z,100.00
2023-03-16T07:35:37.262Z,100.00
2023-03-16T07:38:24.629Z,100.00
2023-03-16T07:41:11.679Z,100.00
2023-03-16T07:43:58.797Z,100.00
2023-03-16T07:46:45.881Z,100.00
2023-03-16T07:49:33.016Z,100.00
2023-03-16T07:52:20.050Z,100.00
2023-03-16T07:55:07.721Z,100.00
2023-03-16T07:57:54.722Z,100.00
2023-03-16T08:00:42.724Z,100.00
2023-03-16T08:03:30.338Z,100.00
2023-03-16T08:06:17.556Z,100.00
2023-03-16T08:09:04.970Z,100.00
2023-03-16T08:11:52.054Z,100.00
2023-03-16T08:14:39.107Z,100.00
2023-03-16T08:17:26.234Z,100.00
2023-03-16T08:20:15.104Z,100.00
2023-03-16T08:23:02.257Z,100.00
2023-03-16T08:25:53.909Z,100.00
2023-03-16T08:28:41.073Z,100.00
2023-03-16T08:31:28.912Z,99.94
2023-03-16T08:34:16.265Z,100.00
2023-03-16T08:37:04.293Z,92.40
2023-03-16T08:39:51.714Z,87.46
2023-03-16T08:42:38.945Z,88.69
2023-03-16T08:45:26.682Z,80.07
2023-03-16T08:48:14.484Z,79.12
2023-03-16T08:51:06.085Z,64.82
2023-03-16T08:53:54.289Z,66.01
2023-03-16T08:56:41.389Z,59.23
2023-03-16T08:59:30.535Z,56.76
2023-03-16T09:02:17.884Z,55.52
2023-03-16T09:05:05.281Z,55.25
2023-03-16T09:07:54.351Z,50.54
2023-03-16T09:10:41.795Z,49.97
2023-03-16T09:13:28.986Z,49.64
2023-03-16T09:16:16.563Z,48.77
2023-03-16T09:19:04.488Z,52.80
2023-03-16T09:21:51.562Z,50.00
2023-03-16T09:24:38.956Z,50.75
2023-03-16T09:27:25.986Z,51.23
2023-03-16T09:30:13.711Z,49.05
2023-03-16T09:33:01.161Z,49.58
2023-03-16T09:35:48.593Z,47.18
2023-03-16T09:38:40.957Z,46.34
2023-03-16T09:41:45.105Z,47.86
2023-03-16T09:44:48.173Z,42.21
2023-03-16T09:47:36.840Z,44.21
2023-03-16T09:50:47.367Z,42.87
2023-03-16T09:53:39.301Z,45.77
2023-03-16T09:56:35.444Z,42.34
2023-03-16T09:59:22.835Z,43.17
2023-03-16T10:02:51.237Z,43.40
2023-03-16T10:05:39.666Z,41.96
2023-03-16T10:08:37.890Z,43.85
2023-03-16T10:11:38.816Z,41.94
2023-03-16T10:14:37.313Z,41.47
2023-03-16T10:17:33.353Z,41.15
2023-03-16T10:20:23.695Z,41.85
2023-03-16T10:23:25.438Z,43.21
2023-03-16T10:26:26.408Z,43.78
2023-03-16T10:29:14.674Z,41.40
2023-03-16T10:32:12.629Z,40.30
2023-03-16T10:35:06.530Z,41.17
2023-03-16T10:37:53.609Z,38.90
2023-03-16T10:40:40.767Z,40.64
2023-03-16T10:43:29.285Z,40.39
2023-03-16T10:46:16.824Z,39.59
2023-03-16T10:49:03.988Z,38.76
2023-03-16T10:51:53.171Z,38.95
2023-03-16T10:54:48.017Z,38.66
2023-03-16T10:57:37.074Z,39.55
2023-03-16T11:00:43.464Z,39.28
2023-03-16T11:03:38.955Z,38.61
2023-03-16T11:06:30.909Z,38.21
2023-03-16T11:09:37.319Z,38.14
2023-03-16T11:12:31.687Z,38.11
2023-03-16T11:15:25.769Z,38.67
2023-03-16T11:18:39.238Z,37.14
2023-03-16T11:21:38.858Z,38.19
2023-03-16T11:24:47.902Z,38.06
2023-03-16T11:28:00.452Z,36.31
2023-03-16T11:31:04.804Z,36.65
2023-03-16T11:33:54.413Z,36.00
2023-03-16T11:37:23.054Z,37.06
2023-03-16T11:40:29.173Z,34.46
2023-03-16T11:43:43.682Z,34.77
2023-03-16T11:46:30.814Z,34.72
2023-03-16T11:49:45.870Z,35.56
2023-03-16T11:52:51.355Z,34.94
2023-03-16T11:55:38.346Z,33.14
2023-03-16T11:59:00.901Z,33.60
2023-03-16T12:02:01.252Z,33.63
2023-03-16T12:05:17.072Z,34.47
2023-03-16T12:08:54.709Z,36.11
2023-03-16T12:11:55.184Z,35.19
2023-03-16T12:14:51.631Z,35.62
2023-03-16T12:17:41.000Z,35.85
2023-03-16T12:20:31.873Z,34.96
2023-03-16T12:23:27.979Z,33.51
2023-03-16T12:26:17.714Z,35.36
2023-03-16T12:29:19.508Z,35.23
2023-03-16T12:33:01.090Z,32.77
2023-03-16T12:36:29.631Z,32.37
2023-03-16T12:39:23.722Z,31.32
2023-03-16T12:42:20.730Z,30.87
2023-03-16T12:45:21.802Z,30.71
2023-03-16T12:48:18.918Z,31.81
2023-03-16T12:51:06.179Z,32.48
2023-03-16T12:53:55.262Z,34.41
2023-03-16T12:56:48.328Z,32.31
2023-03-16T12:59:47.355Z,33.98
2023-03-16T13:02:37.360Z,33.10
2023-03-16T13:05:32.358Z,33.63
2023-03-16T13:08:21.565Z,33.56
2023-03-16T13:11:11.258Z,36.20
2023-03-16T13:14:01.213Z,36.17
2023-03-16T13:16:49.812Z,35.57
2023-03-16T13:19:38.149Z,35.01
2023-03-16T13:22:32.270Z,35.32
2023-03-16T13:25:36.939Z,35.55
2023-03-16T13:28:29.833Z,35.08
2023-03-16T13:31:37.562Z,34.24
2023-03-16T13:34:40.119Z,32.78
2023-03-16T13:37:29.751Z,33.17
2023-03-16T13:40:27.823Z,32.48
2023-03-16T13:43:17.159Z,32.78
2023-03-16T13:46:22.530Z,32.91
2023-03-16T13:49:13.474Z,32.40
2023-03-16T13:52:03.866Z,32.76
2023-03-16T13:54:52.856Z,31.83
2023-03-16T13:57:42.580Z,32.74
2023-03-16T14:00:37.524Z,30.94
2023-03-16T14:03:33.138Z,29.62
2023-03-16T14:06:27.495Z,31.06
2023-03-16T14:09:21.824Z,30.25
2023-03-16T14:12:17.822Z,29.86
2023-03-16T14:15:07.286Z,29.26
2023-03-16T14:18:05.148Z,31.28
2023-03-16T14:20:54.870Z,30.91
2023-03-16T14:23:45.312Z,31.08
2023-03-16T14:26:44.153Z,30.11
2023-03-16T14:29:31.626Z,31.13
2023-03-16T14:32:28.397Z,30.45
2023-03-16T14:35:20.656Z,30.82
2023-03-16T14:38:27.320Z,29.82
2023-03-16T14:41:44.030Z,29.58
2023-03-16T14:44:34.795Z,28.88
2023-03-16T14:47:25.459Z,28.31
2023-03-16T14:50:18.043Z,29.25
2023-03-16T14:53:07.755Z,29.40
2023-03-16T14:55:58.655Z,29.30
2023-03-16T14:58:45.818Z,28.72
2023-03-16T15:01:33.918Z,29.70
2023-03-16T15:04:28.950Z,29.08
2023-03-16T15:07:34.640Z,29.22
2023-03-16T15:10:26.874Z,29.13
2023-03-16T15:13:53.053Z,30.10
2023-03-16T15:16:42.629Z,29.50
2023-03-16T15:19:29.780Z,29.13
2023-03-16T15:22:24.840Z,30.13
2023-03-16T15:25:28.140Z,29.50
2023-03-16T15:28:23.828Z,29.09
2023-03-16T15:31:12.855Z,29.57
2023-03-16T15:34:00.065Z,29.72
2023-03-16T15:36:49.080Z,29.10
2023-03-16T15:39:37.203Z,29.09
2023-03-16T15:42:26.063Z,28.81
2023-03-16T15:45:22.485Z,27.89
2023-03-16T15:48:11.140Z,27.77
2023-03-16T15:51:04.369Z,27.75
2023-03-16T15:53:55.842Z,28.07
2023-03-16T15:56:53.788Z,28.21
2023-03-16T15:59:41.910Z,27.58
2023-03-16T16:02:32.114Z,28.17
2023-03-16T16:05:19.196Z,28.65
2023-03-16T16:08:06.701Z,28.97
2023-03-16T16:10:54.685Z,28.57
2023-03-16T16:13:45.065Z,29.11
2023-03-16T16:16:34.409Z,28.95
2023-03-16T16:19:21.757Z,30.08
2023-03-16T16:22:13.215Z,30.38
2023-03-16T16:25:00.286Z,31.27
2023-03-16T16:27:47.527Z,32.15
2023-03-16T16:30:34.653Z,31.98
2023-03-16T16:33:30.339Z,32.85
2023-03-16T16:36:20.495Z,32.82
2023-03-16T16:39:07.905Z,33.76
2023-03-16T16:41:56.974Z,33.62
2023-03-16T16:44:44.963Z,34.73
2023-03-16T16:47:32.203Z,33.99
2023-03-16T16:50:21.724Z,34.18
2023-03-16T16:53:20.878Z,34.47
2023-03-16T16:56:13.955Z,37.02
2023-03-16T16:59:34.448Z,40.38
2023-03-16T17:02:41.624Z,42.79
2023-03-16T17:05:30.274Z,44.45
2023-03-16T17:08:18.489Z,48.04
2023-03-16T17:11:05.949Z,46.74
2023-03-16T17:13:54.619Z,48.55
2023-03-16T17:16:42.357Z,45.86
2023-03-16T17:19:29.812Z,52.06
2023-03-16T17:22:25.822Z,50.07
2023-03-16T17:25:14.891Z,52.04
2023-03-16T17:28:02.584Z,54.15
2023-03-16T17:30:50.111Z,58.61
2023-03-16T17:33:40.811Z,54.87
2023-03-16T17:36:29.514Z,55.48
2023-03-16T17:39:28.361Z,55.69
2023-03-16T17:42:19.387Z,55.17
2023-03-16T17:45:15.520Z,64.61
2023-03-16T17:48:06.353Z,62.40
2023-03-16T17:50:54.839Z,64.51
2023-03-16T17:53:44.775Z,54.46
2023-03-16T17:56:34.322Z,58.23
2023-03-16T17:59:23.831Z,59.17
2023-03-16T18:02:40.110Z,61.63
2023-03-16T18:05:34.517Z,59.04
2023-03-16T18:08:27.689Z,58.18
2023-03-16T18:11:26.857Z,62.32
2023-03-16T18:14:35.717Z,64.79
2023-03-16T18:17:31.537Z,53.30
2023-03-16T18:20:31.503Z,61.26
2023-03-16T18:23:30.445Z,58.29
2023-03-16T18:26:20.224Z,59.60
2023-03-16T18:29:08.766Z,54.65
2023-03-16T18:31:58.864Z,55.74
2023-03-16T18:34:47.287Z,60.10
2023-03-16T18:37:38.404Z,59.74
2023-03-16T18:40:27.136Z,58.61
2023-03-16T18:43:17.911Z,59.77
2023-03-16T18:46:13.873Z,60.05
2023-03-16T18:49:08.828Z,58.76
2023-03-16T18:51:58.364Z,53.64
2023-03-16T18:54:47.817Z,52.42
2023-03-16T18:57:35.608Z,52.61
2023-03-16T19:00:30.420Z,51.64
2023-03-16T19:03:28.463Z,52.01
2023-03-16T19:06:28.093Z,55.34
2023-03-16T19:09:22.145Z,53.63
2023-03-16T19:12:17.243Z,53.03
2023-03-16T19:15:19.458Z,54.72
2023-03-16T19:18:09.626Z,52.21
2023-03-16T19:20:57.882Z,52.53
2023-03-16T19:23:56.671Z,52.11
2023-03-16T19:26:44.835Z,52.57
2023-03-16T19:29:35.124Z,52.03
2023-03-16T19:32:23.809Z,60.06
2023-03-16T19:35:19.877Z,56.56
2023-03-16T19:38:10.118Z,63.71
2023-03-16T19:41:01.767Z,59.51
2023-03-16T19:43:52.334Z,61.69
2023-03-16T19:46:41.825Z,59.26
2023-03-16T19:49:31.394Z,58.75
2023-03-16T19:52:22.335Z,62.84
2023-03-16T19:55:19.303Z,57.15
2023-03-16T19:58:08.405Z,59.20
2023-03-16T20:00:57.336Z,56.26
2023-03-16T20:03:48.135Z,55.16
2023-03-16T20:06:36.260Z,55.22
2023-03-16T20:09:24.242Z,54.22
2023-03-16T20:12:33.988Z,56.04
2023-03-16T20:15:23.921Z,54.93
2023-03-16T20:18:15.168Z,53.95
2023-03-16T20:21:03.180Z,55.75
2023-03-16T20:23:52.056Z,57.13
2023-03-16T20:26:40.701Z,53.17
2023-03-16T20:29:33.666Z,52.13
2023-03-16T20:32:25.854Z,52.56
2023-03-16T20:35:28.983Z,51.83
2023-03-16T20:38:18.020Z,51.18
2023-03-16T20:41:27.222Z,51.47
2023-03-16T20:44:18.723Z,51.15
2023-03-16T20:47:07.732Z,51.72
2023-03-16T20:49:58.001Z,51.04
2023-03-16T20:52:46.709Z,51.23
2023-03-16T20:55:35.179Z,51.03
2023-03-16T20:58:31.004Z,50.75
2023-03-16T21:01:21.746Z,50.65
2023-03-16T21:04:21.330Z,50.83
2023-03-16T21:07:09.809Z,49.98
2023-03-16T21:09:58.117Z,50.90
2023-03-16T21:12:48.372Z,51.14
2023-03-16T21:15:35.668Z,51.41
2023-03-16T21:18:24.360Z,51.16
2023-03-16T21:21:16.887Z,50.96
2023-03-16T21:24:04.353Z,51.30
2023-03-16T21:26:51.518Z,51.11
2023-03-16T21:29:38.959Z,51.70
2023-03-16T21:32:28.565Z,51.64
2023-03-16T21:35:16.512Z,52.73
2023-03-16T21:38:18.514Z,52.91
2023-03-16T21:41:05.678Z,53.02
2023-03-16T21:43:54.540Z,53.56
2023-03-16T21:46:42.692Z,53.85
2023-03-16T21:49:29.968Z,53.49
2023-03-16T21:52:25.538Z,54.23
2023-03-16T21:55:31.841Z,55.94
2023-03-16T21:58:19.755Z,61.15
2023-03-16T22:01:06.817Z,58.22
2023-03-16T22:04:01.307Z,62.45
2023-03-16T22:06:48.380Z,64.75
2023-03-16T22:09:36.207Z,60.91
2023-03-16T22:12:23.254Z,61.55
2023-03-16T22:15:10.742Z,63.60
2023-03-16T22:18:01.821Z,60.15
2023-03-16T22:20:49.141Z,61.49
2023-03-16T22:23:37.658Z,58.60
2023-03-16T22:26:25.948Z,56.37
2023-03-16T22:29:20.232Z,56.17
2023-03-16T22:32:14.599Z,56.24
2023-03-16T22:35:02.928Z,55.51
2023-03-16T22:37:50.280Z,55.19
2023-03-16T22:40:39.285Z,54.53
2023-03-16T22:43:37.841Z,54.24
2023-03-16T22:46:27.047Z,54.52
2023-03-16T22:49:21.097Z,54.14
2023-03-16T22:52:11.362Z,54.52
2023-03-16T22:55:00.666Z,54.14
2023-03-16T22:57:51.717Z,54.64
2023-03-16T23:00:38.976Z,55.86
2023-03-16T23:03:26.498Z,63.29
2023-03-16T23:06:20.629Z,62.50
2023-03-16T23:09:09.810Z,63.88
2023-03-16T23:11:57.612Z,61.97
2023-03-16T23:14:44.753Z,64.09
2023-03-16T23:17:31.829Z,61.57
2023-03-16T23:20:23.632Z,71.72
2023-03-16T23:23:11.394Z,58.58
2023-03-16T23:25:58.594Z,57.20
2023-03-16T23:28:47.096Z,56.21
2023-03-16T23:31:35.216Z,55.56
2023-03-16T23:34:24.397Z,55.32
2023-03-16T23:37:11.886Z,55.24
2023-03-16T23:39:59.265Z,58.45
2023-03-16T23:42:46.978Z,56.78
2023-03-16T23:45:39.983Z,55.72
2023-03-16T23:48:27.344Z,56.88
2023-03-16T23:51:38.213Z,59.00
2023-03-16T23:54:29.695Z,60.93
2023-03-16T23:57:17.088Z,67.42
